Billingham, United Kingdom
Current Conditions -  °F | °C
As of 3:20 PM on Monday 22 Dec 2014 (Local Time) from EGNV Reporting Station
Broken Clouds Broken Clouds  
Wind Chill: 55°   Ceiling: 2600
Heat Index: 55°   Visibility: 6mi
Dew Point: 46°   Wind: 24mph
Humidity: 72%   Direction: 250°WSW
Pressure: 29.71"   Gusts: NA
Location:  54.59°N, 1.29°W
Report Text: EGNV 221520Z 25021KT 9999 BKN026 13/08 Q1006
Loading
Personal Weather Stations






























Interactive Weather Map New forecast layout! Learn more

10-Day Weather Forecast

Advertisements
Track Severe Weather on mobile